Data for 12/24/2017

Time Sea-Level Adjusted Pressure Absolute Pressure Temperature Relative Humidity Dew Point   
(mb) (inHg) (mb) (inHg) (C) (F) (%) (C) (F)
00:05 1025 30.27 854 25.22 -18.5 -1.2 77 -21.6 -6.9
00:10 1025 30.27 854 25.22 -18.3 -1 75 -21.7 -7.1
00:15 1025 30.27 854 25.22 -18.6 -1.4 75 -22 -7.7
00:20 1025 30.27 854 25.22 -18.7 -1.6 76 -21.9 -7.4
00:25 1025 30.27 854 25.22 -18.5 -1.3 76 -21.8 -7.2
00:30 1025 30.27 854 25.22 -18.5 -1.3 78 -21.5 -6.7
00:35 1025 30.27 854 25.22 -18.5 -1.3 77 -21.6 -6.9
00:40 1025 30.27 854 25.22 -18.6 -1.5 79 -21.4 -6.5
00:45 1025 30.27 854 25.22 -18 -0.4 78 -20.9 -5.6
00:50 1025 30.27 854 25.22 -18.3 -1 78 -21.2 -6.2
00:55 1025 30.27 854 25.22 -18.5 -1.3 78 -21.4 -6.6
01:00 1025 30.27 854 25.22 -18.6 -1.4 77 -21.7 -7.1
01:05 1025 30.27 854 25.22 -18.8 -1.9 78 -21.8 -7.2
01:10 1025 30.27 854 25.22 -18.9 -1.9 75 -22.2 -8
01:15 1025 30.27 854 25.22 -18.3 -1 75 -21.7 -7
01:20 1025 30.27 854 25.22 -17.8 -0 77 -21 -5.8
01:25 1025 30.27 854 25.22 -18.1 -0.6 73 -21.9 -7.4
01:30 1025 30.27 854 25.22 -18.7 -1.7 75 -22.1 -7.9
01:35 1025 30.27 854 25.22 -19.1 -2.3 74 -22.6 -8.6
01:40 1025 30.27 854 25.22 -19 -2.2 75 -22.3 -8.2
01:45 1025 30.27 854 25.22 -19.1 -2.4 74 -22.6 -8.7
01:50 1025 30.27 854 25.22 -19.6 -3.4 75 -23.1 -9.6
01:55 1025 30.27 854 25.22 -19.8 -3.6 76 -23 -9.4
02:00 1025 30.27 854 25.22 -19.7 -3.5 75 -23 -9.4
02:05 1025 30.27 854 25.22 -19.2 -2.5 75 -22.5 -8.6
02:10 1025 30.27 854 25.22 -19 -2.2 75 -22.4 -8.3
02:15 1025 30.27 854 25.22 -18.7 -1.7 75 -22.1 -7.8
02:20 1025 30.27 854 25.22 -18.4 -1.1 78 -21.4 -6.5
02:25 1025 30.27 854 25.22 -17.6 0.2 77 -20.8 -5.4
02:30 1025 30.27 854 25.22 -17.4 0.7 76 -20.6 -5.1
02:35 1025 30.27 854 25.22 -18 -0.3 76 -21.3 -6.3
02:40 1025 30.27 854 25.22 -18.4 -1.1 76 -21.6 -6.9
02:45 1025 30.27 854 25.22 -18.4 -1 76 -21.6 -6.9
02:50 1025 30.27 854 25.22 -18.1 -0.6 74 -21.7 -7
02:55 1025 30.27 854 25.22 -18.4 -1 75 -21.8 -7.2
03:00 1025 30.27 854 25.22 -18.3 -1 83 -20.5 -5
03:05 1025 30.27 854 25.22 -18 -0.4 76 -21.2 -6.2
03:10 1025 30.27 854 25.22 -18.2 -0.7 75 -21.7 -7
03:15 1025 30.27 854 25.22 -18.3 -1 74 -21.9 -7.3
03:20 1025 30.27 854 25.22 -18.7 -1.6 73 -22.3 -8.2
03:25 1025 30.27 854 25.22 -18.2 -0.7 73 -21.9 -7.5
03:30 1025 30.27 854 25.22 -18.1 -0.6 77 -21.2 -6.1
03:35 1025 30.27 854 25.22 -18.1 -0.6 79 -20.9 -5.7
03:40 1025 30.27 854 25.22 -18.1 -0.5 79 -20.9 -5.6
03:45 1025 30.27 854 25.22 -18.1 -0.5 72 -21.9 -7.4
03:50 1025 30.27 854 25.22 -18.2 -0.7 77 -21.2 -6.2
03:55 1025 30.27 854 25.22 -18.3 -1 73 -22 -7.7
04:00 1025 30.27 854 25.22 -18.5 -1.4 75 -21.9 -7.4
04:05 1025 30.27 854 25.22 -18.4 -1.2 78 -21.4 -6.6
04:10 1025 30.27 854 25.22 -18.6 -1.5 74 -22.2 -7.9
04:15 1024 30.24 854 25.22 -18.9 -2 79 -21.7 -7
04:20 1024 30.24 854 25.22 -18.8 -1.8 75 -22.1 -7.9
04:25 1024 30.24 854 25.22 -18.9 -2.1 73 -22.6 -8.6
04:30 1025 30.27 854 25.22 -18.8 -1.8 71 -22.7 -8.9
04:35 1025 30.27 854 25.22 -19 -2.2 72 -22.9 -9.1
04:40 1025 30.27 854 25.22 -19.4 -2.9 74 -22.9 -9.2
04:45 1025 30.27 854 25.22 -19.6 -3.3 74 -23.1 -9.5
04:50 1025 30.27 854 25.22 -19.7 -3.4 74 -23.2 -9.8
04:55 1025 30.27 854 25.22 -19.9 -3.8 75 -23.3 -9.9
05:00 1025 30.27 854 25.22 -20.1 -4.2 76 -23.3 -9.9
05:05 1025 30.27 854 25.22 -19.9 -3.9 75 -23.2 -9.8
05:10 1025 30.27 854 25.22 -19.9 -3.8 77 -22.9 -9.3
05:15 1025 30.27 854 25.22 -19.5 -3.1 75 -23 -9.3
05:20 1025 30.27 854 25.22 -19.5 -3.2 74 -23 -9.4
05:25 1025 30.27 854 25.22 -19.7 -3.4 76 -23 -9.3
05:30 1025 30.27 854 25.22 -19.7 -3.4 75 -23.1 -9.5
05:35 1025 30.27 854 25.22 -19.5 -3.1 80 -22.1 -7.8
05:40 1024 30.24 854 25.22 -19 -2.2 77 -22 -7.6
05:45 1024 30.24 854 25.22 -18.8 -1.9 78 -21.8 -7.3
05:50 1024 30.24 854 25.22 -18.6 -1.4 75 -22.1 -7.7
05:55 1024 30.24 854 25.22 -18.6 -1.4 77 -21.7 -7
06:00 1024 30.24 854 25.22 -18.6 -1.4 78 -21.5 -6.8
06:05 1024 30.24 854 25.22 -18.4 -1.1 75 -21.9 -7.4
06:10 1024 30.24 854 25.22 -18.6 -1.5 74 -22.2 -7.9
06:15 1024 30.24 854 25.22 -18.7 -1.7 75 -22.2 -7.9
06:20 1024 30.24 854 25.22 -18.9 -2 74 -22.4 -8.4
06:25 1024 30.24 854 25.22 -18.9 -2.1 72 -22.8 -9.1
06:30 1024 30.24 854 25.22 -19.3 -2.8 74 -22.9 -9.2
06:35 1024 30.24 853 25.19 -19.3 -2.7 73 -23 -9.4
06:40 1024 30.24 853 25.19 -19.3 -2.7 72 -23.1 -9.5
06:45 1024 30.24 853 25.19 -19.6 -3.2 75 -23 -9.4
06:50 1024 30.24 853 25.19 -19.5 -3 77 -22.6 -8.7
06:55 1024 30.24 853 25.19 -19.3 -2.7 75 -22.7 -8.9
07:00 1024 30.24 853 25.19 -19.4 -3 75 -22.8 -9.1
07:05 1024 30.24 853 25.19 -19.5 -3 74 -23.1 -9.5
07:10 1024 30.24 853 25.19 -19.7 -3.5 75 -23.1 -9.7
07:15 1024 30.24 853 25.19 -19.7 -3.4 75 -23.1 -9.5
07:20 1024 30.24 853 25.19 -19.6 -3.3 75 -23 -9.3
07:25 1024 30.24 853 25.19 -19.4 -2.8 74 -22.9 -9.2
07:30 1024 30.24 853 25.19 -19.2 -2.5 73 -22.8 -9.1
07:35 1024 30.24 853 25.19 -18.8 -1.8 73 -22.4 -8.4
07:40 1024 30.24 853 25.19 -18.2 -0.7 72 -22.1 -7.8
07:45 1024 30.24 853 25.19 -17.9 -0.3 70 -22.1 -7.8
07:50 1024 30.24 853 25.19 -17.9 -0.3 70 -22.2 -7.9
07:55 1024 30.24 853 25.19 -17.9 -0.3 70 -22.1 -7.7
08:00 1024 30.24 853 25.19 -17.8 -0 69 -22.1 -7.8
08:05 1024 30.24 853 25.19 -17.4 0.8 66 -22.3 -8.1
08:10 1024 30.24 853 25.19 -16.8 1.7 66 -21.7 -7
08:15 1024 30.24 853 25.19 -16.8 1.8 69 -21.3 -6.3
08:20 1024 30.24 853 25.19 -16.7 1.9 68 -21.3 -6.3
08:25 1024 30.24 853 25.19 -16.6 2.2 67 -21.4 -6.5
08:30 1024 30.24 853 25.19 -16.6 2.1 66 -21.6 -6.8
08:35 1024 30.24 853 25.19 -16.3 2.6 68 -20.9 -5.6
08:40 1024 30.24 853 25.19 -16.1 3 65 -21.3 -6.3
08:45 1024 30.24 853 25.19 -16 3.3 64 -21.2 -6.2
08:50 1024 30.24 853 25.19 -15.6 3.8 64 -20.9 -5.6
08:55 1024 30.24 853 25.19 -15.4 4.3 64 -20.7 -5.3
09:00 1024 30.24 853 25.19 -15.3 4.6 66 -20.3 -4.6
09:05 1024 30.24 853 25.19 -15.2 4.7 66 -20.3 -4.5
09:10 1024 30.24 853 25.19 -14.9 5.1 64 -20.3 -4.5
09:15 1024 30.24 853 25.19 -14.3 6.3 60 -20.4 -4.7
09:20 1024 30.24 853 25.19 -13.3 8.1 57 -20.1 -4.2
09:25 1024 30.24 853 25.19 -13.2 8.2 58 -19.8 -3.7
09:30 1024 30.24 853 25.19 -13.4 8 57 -20.1 -4.1
09:35 1024 30.24 853 25.19 -13.3 8.1 56 -20.3 -4.5
09:40 1024 30.24 853 25.19 -13.2 8.2 56 -20.3 -4.6
09:45 1024 30.24 853 25.19 -12.5 9.4 56 -19.6 -3.3
09:50 1024 30.24 853 25.19 -11.9 10.6 53 -19.7 -3.5
09:55 1024 30.24 853 25.19 -11.9 10.6 54 -19.4 -2.9
10:00 1024 30.24 853 25.19 -11.6 11.1 53 -19.4 -2.9
10:05 1024 30.24 853 25.19 -11.2 11.9 53 -19.1 -2.4
10:10 1024 30.24 853 25.19 -10.7 12.7 50 -19.3 -2.8
10:15 1024 30.24 853 25.19 -10.9 12.5 52 -18.9 -2.1
10:20 1024 30.24 853 25.19 -10.4 13.4 48 -19.3 -2.8
10:25 1024 30.24 853 25.19 -10.1 13.8 49 -18.9 -2.1
10:30 1023 30.21 853 25.19 -10.7 12.7 51 -19 -2.2
10:35 1023 30.21 853 25.19 -10.8 12.7 50 -19.4 -2.9
10:40 1023 30.21 852 25.16 -10.5 13 48 -19.5 -3.1
10:45 1023 30.21 852 25.16 -10.5 13.1 43 -20.8 -5.4
10:50 1023 30.21 852 25.16 -10.5 13.1 47 -19.9 -3.8
10:55 1023 30.21 852 25.16 -10.6 12.8 46 -20.1 -4.3
11:00 1023 30.21 852 25.16 -11 12.2 47 -20.3 -4.6
11:05 1023 30.21 852 25.16 -10.5 13.2 46 -19.9 -3.9
11:10 1023 30.21 852 25.16 -10.2 13.7 46 -19.7 -3.5
11:15 1023 30.21 852 25.16 -10.1 13.8 44 -20.2 -4.4
11:20 1023 30.21 852 25.16 -10.2 13.6 44 -20.2 -4.4
11:25 1022 30.18 852 25.16 -10 14 44 -20 -4
11:30 1022 30.18 852 25.16 -10.3 13.6 45 -20.1 -4.2
11:35 1022 30.18 851 25.13 -10.1 13.8 44 -20.3 -4.6
11:40 1022 30.18 851 25.13 -9.7 14.6 44 -19.9 -3.8
11:45 1022 30.18 851 25.13 -9.8 14.4 43 -20.2 -4.4
11:50 1022 30.18 851 25.13 -9.5 14.8 42 -20.3 -4.5
11:55 1022 30.18 851 25.13 -9.4 15.1 42 -20.2 -4.4
12:00 1022 30.18 851 25.13 -9.2 15.5 42 -20 -4
12:05 1022 30.18 851 25.13 -9.4 15.1 43 -19.7 -3.4
12:10 1022 30.18 851 25.13 -9.2 15.5 41 -20.2 -4.4
12:15 1022 30.18 851 25.13 -9.4 15.2 43 -19.8 -3.7
12:20 1022 30.18 851 25.13 -9.6 14.7 42 -20.2 -4.4
12:25 1021 30.15 851 25.13 -9.7 14.5 45 -19.7 -3.4
12:30 1021 30.15 851 25.13 -9.3 15.3 42 -19.9 -3.8
12:35 1021 30.15 851 25.13 -9.3 15.3 42 -20.1 -4.1
12:40 1021 30.15 850 25.1 -9.7 14.6 44 -19.8 -3.7
12:45 1021 30.15 850 25.1 -9.7 14.6 43 -20.2 -4.3
12:50 1021 30.15 850 25.1 -9.4 15 43 -19.9 -3.8
12:55 1021 30.15 850 25.1 -9.3 15.3 42 -20 -4
13:00 1021 30.15 850 25.1 -9.3 15.3 43 -19.8 -3.6
13:05 1021 30.15 850 25.1 -9.3 15.2 41 -20.3 -4.5
13:10 1021 30.15 850 25.1 -9.3 15.2 42 -20.1 -4.2
13:15 1021 30.15 850 25.1 -9.6 14.8 43 -20 -3.9
13:20 1021 30.15 850 25.1 -9.4 15.2 41 -20.4 -4.7
13:25 1021 30.15 850 25.1 -9.4 15.1 42 -20.2 -4.4
13:30 1021 30.15 850 25.1 -9.2 15.4 41 -20.1 -4.2
13:35 1020 30.12 850 25.1 -9.2 15.4 41 -20.2 -4.4
13:40 1020 30.12 850 25.1 -9.1 15.6 41 -20.2 -4.3
13:45 1020 30.12 850 25.1 -8.8 16.1 40 -20.2 -4.4
13:50 1020 30.12 850 25.1 -8.9 16 39 -20.5 -4.9
13:55 1020 30.12 849 25.07 -8.8 16.2 40 -20.2 -4.3
14:00 1020 30.12 849 25.07 -8.9 16 39 -20.5 -4.9
14:05 1020 30.12 849 25.07 -9 15.8 39 -20.8 -5.4
14:10 1020 30.12 849 25.07 -8.9 16 38 -20.8 -5.4
14:15 1020 30.12 849 25.07 -9.2 15.5 41 -20.2 -4.3
14:20 1020 30.12 849 25.07 -9.3 15.4 42 -20 -3.9
14:25 1020 30.12 849 25.07 -9.4 15 43 -19.8 -3.6
14:30 1020 30.12 849 25.07 -9.8 14.4 42 -20.4 -4.7
14:35 1020 30.12 849 25.07 -10.1 13.9 42 -20.6 -5
14:40 1020 30.12 849 25.07 -10.7 12.8 44 -20.6 -5.1
14:45 1020 30.12 849 25.07 -11 12.2 45 -20.7 -5.2
14:50 1020 30.12 849 25.07 -11.4 11.5 48 -20.4 -4.8
14:55 1020 30.12 849 25.07 -11.6 11.1 48 -20.4 -4.8
15:00 1020 30.12 849 25.07 -11.7 11 49 -20.4 -4.6
15:05 1020 30.12 849 25.07 -12.1 10.2 51 -20.2 -4.4
15:10 1020 30.12 849 25.07 -12.6 9.3 54 -20.1 -4.1
15:15 1020 30.12 849 25.07 -13 8.6 61 -19 -2.1
15:20 1020 30.12 849 25.07 -13.3 8.1 64 -18.7 -1.7
15:25 1020 30.12 849 25.07 -13.4 7.9 66 -18.5 -1.4
15:30 1020 30.12 849 25.07 -13.6 7.5 66 -18.8 -1.8
15:35 1020 30.12 849 25.07 -13.8 7.2 66 -18.8 -1.9
15:40 1020 30.12 849 25.07 -13.8 7.1 67 -18.7 -1.7
15:45 1020 30.12 849 25.07 -13.9 6.9 68 -18.6 -1.5
15:50 1020 30.12 849 25.07 -14.1 6.7 70 -18.4 -1.1
15:55 1020 30.12 849 25.07 -14.1 6.7 69 -18.5 -1.3
16:00 1020 30.12 849 25.07 -14 6.7 67 -18.9 -2.1
16:05 1020 30.12 849 25.07 -14.1 6.5 68 -18.9 -1.9
16:10 1020 30.12 849 25.07 -14.2 6.5 68 -18.9 -1.9
16:15 1020 30.12 849 25.07 -14.5 5.9 69 -19.1 -2.3
16:20 1020 30.12 849 25.07 -15 5.1 66 -20 -4
16:25 1020 30.12 849 25.07 -15.2 4.6 66 -20.2 -4.4
16:30 1019 30.09 849 25.07 -15.4 4.2 69 -19.9 -3.8
16:35 1020 30.12 849 25.07 -15.5 4.2 71 -19.6 -3.4
16:40 1020 30.12 849 25.07 -15.4 4.3 70 -19.7 -3.4
16:45 1020 30.12 849 25.07 -15.4 4.4 70 -19.7 -3.4
16:50 1020 30.12 849 25.07 -15.3 4.4 68 -20 -4
16:55 1019 30.09 849 25.07 -15.3 4.5 69 -19.7 -3.5
17:00 1020 30.12 849 25.07 -15.2 4.7 66 -20.2 -4.4
17:05 1019 30.09 849 25.07 -15.1 4.8 66 -20.1 -4.1
17:10 1020 30.12 849 25.07 -15.2 4.7 67 -19.9 -3.8
17:15 1019 30.09 849 25.07 -14.9 5.1 65 -20 -4.1
17:20 1019 30.09 849 25.07 -14.9 5.3 67 -19.6 -3.4
17:25 1019 30.09 849 25.07 -15 5.1 66 -20 -4
17:30 1019 30.09 848 25.04 -14.8 5.3 68 -19.5 -3.1
17:35 1019 30.09 849 25.07 -15 5 66 -20 -4.1
17:40 1019 30.09 848 25.04 -15.2 4.7 67 -20.1 -4.1
17:45 1019 30.09 848 25.04 -15.1 4.8 68 -19.8 -3.6
17:50 1019 30.09 848 25.04 -15.2 4.7 71 -19.3 -2.7
17:55 1019 30.09 848 25.04 -14.8 5.4 66 -19.9 -3.7
18:00 1019 30.09 848 25.04 -14.9 5.2 70 -19.3 -2.7
18:05 1019 30.09 848 25.04 -15.2 4.7 66 -20.2 -4.4
18:10 1019 30.09 848 25.04 -14.8 5.3 70 -19.1 -2.4
18:15 1019 30.09 848 25.04 -14.7 5.6 63 -20.2 -4.3
18:20 1019 30.09 848 25.04 -14.5 6 63 -20 -4
18:25 1019 30.09 848 25.04 -14.2 6.4 65 -19.4 -3
18:30 1019 30.09 848 25.04 -14.1 6.7 68 -18.8 -1.8
18:35 1019 30.09 848 25.04 -14.2 6.5 71 -18.3 -0.9
18:40 1019 30.09 848 25.04 -14.2 6.5 71 -18.4 -1.1
18:45 1019 30.09 848 25.04 -14.1 6.6 73 -18 -0.5
18:50 1019 30.09 848 25.04 -13.9 6.9 70 -18.3 -0.9
18:55 1019 30.09 848 25.04 -14 6.8 71 -18.2 -0.8
19:00 1019 30.09 848 25.04 -14 6.8 70 -18.4 -1.2
19:05 1019 30.09 848 25.04 -14.1 6.6 71 -18.3 -0.9
19:10 1019 30.09 848 25.04 -14.2 6.5 72 -18.1 -0.6
19:15 1019 30.09 848 25.04 -14.2 6.5 71 -18.3 -0.9
19:20 1019 30.09 848 25.04 -14.3 6.3 72 -18.3 -0.9
19:25 1019 30.09 848 25.04 -14.6 5.7 72 -18.6 -1.5
19:30 1019 30.09 848 25.04 -14.8 5.4 73 -18.6 -1.5
19:35 1019 30.09 848 25.04 -14.6 5.8 72 -18.5 -1.3
19:40 1019 30.09 848 25.04 -14.3 6.2 73 -18.2 -0.7
19:45 1019 30.09 848 25.04 -14.1 6.6 70 -18.4 -1.1
19:50 1019 30.09 848 25.04 -14.2 6.4 70 -18.5 -1.3
19:55 1019 30.09 848 25.04 -14.4 6 70 -18.7 -1.7
20:00 1019 30.09 848 25.04 -14.8 5.4 72 -18.8 -1.9
20:05 1019 30.09 848 25.04 -15 5 73 -18.9 -2
20:10 1019 30.09 848 25.04 -15.3 4.5 74 -18.9 -2
20:15 1019 30.09 848 25.04 -15.4 4.2 75 -18.9 -2.1
20:20 1019 30.09 848 25.04 -15.6 4 75 -19.1 -2.4
20:25 1019 30.09 848 25.04 -15.6 3.8 75 -19.1 -2.3
20:30 1019 30.09 848 25.04 -15.7 3.8 76 -19.1 -2.3
20:35 1019 30.09 848 25.04 -15.7 3.7 77 -18.9 -2
20:40 1019 30.09 848 25.04 -16 3.2 78 -18.9 -2.1
20:45 1019 30.09 848 25.04 -16.3 2.8 80 -18.9 -2
20:50 1019 30.09 848 25.04 -16 3.2 79 -18.8 -1.8
20:55 1019 30.09 848 25.04 -15.8 3.7 78 -18.8 -1.9
21:00 1019 30.09 848 25.04 -15.7 3.8 76 -18.9 -2.1
21:05 1019 30.09 848 25.04 -15.8 3.5 77 -19 -2.2
21:10 1019 30.09 848 25.04 -15.8 3.5 76 -19.1 -2.4
21:15 1019 30.09 848 25.04 -15.9 3.4 76 -19.3 -2.7
21:20 1019 30.09 848 25.04 -16.1 3 76 -19.4 -2.8
21:25 1019 30.09 848 25.04 -16.2 2.9 77 -19.4 -2.9
21:30 1019 30.09 848 25.04 -16.3 2.6 78 -19.3 -2.7
21:35 1019 30.09 848 25.04 -16.3 2.6 79 -19.2 -2.6
21:40 1019 30.09 848 25.04 -16.4 2.6 78 -19.3 -2.7
21:45 1019 30.09 848 25.04 -16.2 2.8 77 -19.4 -3
21:50 1019 30.09 848 25.04 -16.1 3.1 74 -19.7 -3.5
21:55 1019 30.09 848 25.04 -16.3 2.7 74 -19.9 -3.9
22:00 1019 30.09 848 25.04 -16.3 2.6 73 -20.2 -4.4
22:05 1019 30.09 848 25.04 -16.3 2.6 72 -20.2 -4.4
22:10 1019 30.09 848 25.04 -16.3 2.7 72 -20.2 -4.3
22:15 1019 30.09 848 25.04 -16.2 2.8 71 -20.3 -4.5
22:20 1019 30.09 848 25.04 -16.2 2.9 72 -20 -4.1
22:25 1019 30.09 848 25.04 -15.9 3.5 73 -19.7 -3.4
22:30 1019 30.09 848 25.04 -15.5 4.1 72 -19.4 -3
22:35 1019 30.09 848 25.04 -15.4 4.3 72 -19.4 -2.9
22:40 1019 30.09 848 25.04 -15.6 4 72 -19.5 -3.2
22:45 1019 30.09 848 25.04 -15.6 3.9 71 -19.8 -3.6
22:50 1019 30.09 848 25.04 -15.7 3.7 69 -20.2 -4.3
22:55 1019 30.09 848 25.04 -15.9 3.4 69 -20.4 -4.8
23:00 1019 30.09 848 25.04 -16.2 2.9 69 -20.6 -5
23:05 1019 30.09 848 25.04 -16.3 2.6 70 -20.6 -5.1
23:10 1019 30.09 848 25.04 -16.4 2.5 70 -20.6 -5.1
23:15 1019 30.09 848 25.04 -16.4 2.5 70 -20.7 -5.3
23:20 1019 30.09 848 25.04 -16.6 2.1 70 -20.8 -5.5
23:25 1019 30.09 848 25.04 -16.8 1.7 72 -20.8 -5.4
23:30 1019 30.09 848 25.04 -16.6 2 71 -20.7 -5.2
23:35 1019 30.09 848 25.04 -16.6 2.1 72 -20.6 -5.1
23:40 1019 30.09 848 25.04 -16.4 2.5 71 -20.5 -4.9
23:45 1019 30.09 848 25.04 -16.3 2.7 70 -20.5 -5
23:50 1019 30.09 848 25.04 -16.3 2.6 69 -20.7 -5.3
23:55 1019 30.09 848 25.04 -16.3 2.6 69 -20.7 -5.2
24:00 1019 30.09 848 25.04 -16.3 2.7 70 -20.6 -5